Time;durP1;ratioP1;P1;durP2;ratioP2;P2;SDS_P1;SDS_P2;PMS_P1;PMS_P2;Temp;Humidity;BMP_temperature;BMP_pressure;BME280_temperature;BME280_humidity;BME280_pressure;Samples;Min_cycle;Max_cycle;Signal;HPM_P1;HPM_P2
2021/10/21 00:00:46;;;;;;;13.93;8.80;;;15.40;99.90;;;;;;5031218;28;20484;-76
2021/10/21 00:03:13;;;;;;;15.32;8.48;;;15.40;99.90;;;;;;5031966;28;20071;-76
2021/10/21 00:05:42;;;;;;;14.38;8.80;;;15.40;99.90;;;;;;5032569;28;20126;-77
2021/10/21 00:08:10;;;;;;;15.40;8.57;;;15.50;99.90;;;;;;5031948;28;20057;-77
2021/10/21 00:10:37;;;;;;;12.95;7.38;;;15.50;99.90;;;;;;5031418;28;20095;-78
2021/10/21 00:13:04;;;;;;;13.15;7.43;;;15.50;99.90;;;;;;5032400;28;20123;-78
2021/10/21 00:15:32;;;;;;;12.70;7.03;;;15.50;99.90;;;;;;5031930;28;20092;-78
2021/10/21 00:17:59;;;;;;;14.32;7.40;;;15.50;99.90;;;;;;5032483;28;20114;-79
2021/10/21 00:20:26;;;;;;;11.38;6.85;;;15.50;99.90;;;;;;5028927;28;20048;-77
2021/10/21 00:22:54;;;;;;;14.90;8.43;;;15.50;99.90;;;;;;5027313;28;20061;-76
2021/10/21 00:25:21;;;;;;;13.60;7.50;;;15.50;99.90;;;;;;5030301;28;20049;-75
2021/10/21 00:27:48;;;;;;;15.02;8.80;;;15.50;99.90;;;;;;5028198;28;20057;-76
2021/10/21 00:30:15;;;;;;;12.70;7.97;;;15.50;99.90;;;;;;5026740;28;20081;-76
2021/10/21 00:32:43;;;;;;;12.07;7.90;;;15.50;99.90;;;;;;5030098;28;20231;-77
2021/10/21 00:35:10;;;;;;;13.05;8.00;;;15.50;99.90;;;;;;5035206;28;20057;-76
2021/10/21 00:37:40;;;;;;;13.35;7.60;;;15.50;99.90;;;;;;5033297;28;20106;-79
2021/10/21 00:40:10;;;;;;;12.73;7.72;;;15.50;99.90;;;;;;5034787;28;20081;-80
2021/10/21 00:42:38;;;;;;;14.00;7.63;;;15.40;99.90;;;;;;5034001;28;20904;-78
2021/10/21 00:45:06;;;;;;;13.05;7.30;;;15.40;99.90;;;;;;5030697;28;21267;-78
2021/10/21 00:47:33;;;;;;;13.98;6.75;;;15.40;99.90;;;;;;5030439;28;20579;-77
2021/10/21 00:50:00;;;;;;;12.65;7.53;;;15.40;99.90;;;;;;5031169;28;20089;-78
2021/10/21 00:52:27;;;;;;;13.35;6.57;;;15.40;99.90;;;;;;5030108;28;20053;-78
2021/10/21 00:54:54;;;;;;;13.68;7.50;;;15.40;99.90;;;;;;5030767;28;20061;-78
2021/10/21 00:57:23;;;;;;;12.70;7.47;;;15.30;99.90;;;;;;5033405;28;20061;-78
2021/10/21 00:59:50;;;;;;;11.02;6.93;;;15.30;99.90;;;;;;5034427;28;20052;-78
2021/10/21 01:02:17;;;;;;;13.77;7.75;;;15.30;99.90;;;;;;5034168;28;20045;-78
2021/10/21 01:04:46;;;;;;;14.30;7.53;;;15.30;99.90;;;;;;5034126;28;20643;-78
2021/10/21 01:07:14;;;;;;;12.15;7.72;;;15.30;99.90;;;;;;5033693;28;20059;-78
2021/10/21 01:09:43;;;;;;;13.43;8.18;;;15.30;99.90;;;;;;5034330;28;20092;-78
2021/10/21 01:12:12;;;;;;;12.88;7.72;;;15.30;99.90;;;;;;5034753;28;20115;-77
2021/10/21 01:14:42;;;;;;;15.52;8.52;;;15.30;99.90;;;;;;5034683;28;20854;-81
2021/10/21 01:17:09;;;;;;;13.30;8.20;;;15.30;99.90;;;;;;5034302;28;20071;-77
2021/10/21 01:19:36;;;;;;;17.02;9.02;;;15.30;99.90;;;;;;5035674;28;20113;-78
2021/10/21 01:22:05;;;;;;;15.45;8.77;;;15.20;99.90;;;;;;5035448;28;20433;-77
2021/10/21 01:24:32;;;;;;;20.33;9.13;;;15.30;99.90;;;;;;5035177;28;20057;-77
2021/10/21 01:26:59;;;;;;;16.13;8.75;;;15.20;99.90;;;;;;5034616;28;20469;-77
2021/10/21 01:29:27;;;;;;;15.98;8.82;;;15.20;99.90;;;;;;5030011;28;20076;-77
2021/10/21 01:31:56;;;;;;;18.55;9.90;;;15.20;99.90;;;;;;5030527;28;20049;-78
2021/10/21 01:34:23;;;;;;;20.95;10.50;;;15.20;99.90;;;;;;5029476;28;20053;-77
2021/10/21 01:36:55;;;;;;;19.58;9.50;;;15.10;99.90;;;;;;5030431;28;20106;-77
2021/10/21 01:39:23;;;;;;;18.85;9.93;;;15.10;99.90;;;;;;5032083;28;20049;-79
2021/10/21 01:41:51;;;;;;;18.38;10.15;;;15.10;99.90;;;;;;5030886;28;20087;-78
2021/10/21 01:44:20;;;;;;;20.42;10.48;;;15.00;99.90;;;;;;5031273;28;20444;-77
2021/10/21 01:46:47;;;;;;;16.05;9.18;;;15.00;99.90;;;;;;5031055;28;20517;-77
2021/10/21 01:49:14;;;;;;;16.38;9.75;;;15.00;99.90;;;;;;5032608;28;20084;-77
2021/10/21 01:51:41;;;;;;;15.13;8.85;;;15.00;99.90;;;;;;5031536;28;20049;-77
2021/10/21 01:54:08;;;;;;;15.10;7.70;;;14.90;99.90;;;;;;5040244;28;20083;-78
2021/10/21 01:56:37;;;;;;;15.57;7.38;;;14.80;99.90;;;;;;5037473;28;20111;-76
2021/10/21 01:59:04;;;;;;;11.95;6.13;;;14.80;99.90;;;;;;5035459;28;20478;-77
2021/10/21 02:01:31;;;;;;;12.50;5.80;;;14.80;99.90;;;;;;5033278;28;20106;-78
2021/10/21 02:03:58;;;;;;;9.50;4.85;;;14.70;99.90;;;;;;5034022;28;20099;-78
2021/10/21 02:06:25;;;;;;;9.18;5.03;;;14.70;99.90;;;;;;5037540;28;20382;-77
2021/10/21 02:08:52;;;;;;;8.00;4.10;;;14.60;99.90;;;;;;5037818;28;20068;-78
2021/10/21 02:11:19;;;;;;;7.80;4.10;;;14.60;99.90;;;;;;5036264;28;20059;-78
2021/10/21 02:13:48;;;;;;;7.72;3.72;;;14.60;99.90;;;;;;5035832;28;20056;-77
2021/10/21 02:16:18;;;;;;;8.32;3.83;;;14.50;99.90;;;;;;5036824;28;20131;-77
2021/10/21 02:18:44;;;;;;;7.53;3.50;;;14.50;99.90;;;;;;5032744;28;20060;-76
2021/10/21 02:21:12;;;;;;;7.82;4.07;;;14.50;99.90;;;;;;5032708;28;20532;-76
2021/10/21 02:23:39;;;;;;;7.82;4.22;;;14.50;99.90;;;;;;5033129;28;20124;-77
2021/10/21 02:26:06;;;;;;;9.32;3.80;;;14.50;99.90;;;;;;5033705;28;20048;-76
2021/10/21 02:28:36;;;;;;;9.07;4.50;;;14.50;99.90;;;;;;5032478;28;20045;-76
2021/10/21 02:31:05;;;;;;;7.32;3.85;;;14.40;99.90;;;;;;5029145;28;20053;-78
2021/10/21 02:33:33;;;;;;;10.35;5.07;;;14.40;99.90;;;;;;5032716;28;20060;-78
2021/10/21 02:36:00;;;;;;;10.38;4.80;;;14.40;99.90;;;;;;5034458;28;20087;-80
2021/10/21 02:38:28;;;;;;;8.27;4.55;;;14.40;99.90;;;;;;5038334;28;20056;-79
2021/10/21 02:40:55;;;;;;;12.93;5.95;;;14.30;99.90;;;;;;5032232;28;20064;-76
2021/10/21 02:43:22;;;;;;;10.68;5.40;;;14.30;99.90;;;;;;5032048;28;20065;-77
2021/10/21 02:45:49;;;;;;;11.13;5.22;;;14.20;99.90;;;;;;5032818;28;20057;-77
2021/10/21 02:48:18;;;;;;;10.25;5.50;;;14.20;99.90;;;;;;5032549;28;20055;-75
2021/10/21 02:50:45;;;;;;;13.68;6.80;;;14.10;99.90;;;;;;5030127;28;20139;-79
2021/10/21 02:53:12;;;;;;;10.50;5.03;;;14.10;99.90;;;;;;5032584;28;21095;-76
2021/10/21 02:55:39;;;;;;;9.57;5.28;;;14.10;99.90;;;;;;5033915;28;20083;-76
2021/10/21 02:58:06;;;;;;;9.32;5.10;;;14.10;99.90;;;;;;5035961;28;20128;-77
2021/10/21 03:00:33;;;;;;;9.98;4.68;;;14.00;99.90;;;;;;5032240;28;20048;-76
2021/10/21 03:03:00;;;;;;;8.80;3.72;;;14.00;99.90;;;;;;5036128;28;20041;-77
2021/10/21 03:05:28;;;;;;;9.23;4.72;;;14.00;99.90;;;;;;5034585;28;20083;-77
2021/10/21 03:07:55;;;;;;;6.47;3.75;;;14.00;99.90;;;;;;5032333;28;20344;-76
2021/10/21 03:10:23;;;;;;;7.85;3.55;;;13.90;99.90;;;;;;5036875;28;20451;-77
2021/10/21 03:12:50;;;;;;;6.85;3.20;;;13.90;99.90;;;;;;5030869;28;20047;-77
2021/10/21 03:15:17;;;;;;;7.68;2.70;;;13.90;99.90;;;;;;5031412;28;20061;-77
2021/10/21 03:17:44;;;;;;;5.20;2.75;;;13.90;99.90;;;;;;5036696;28;20072;-78
2021/10/21 03:20:12;;;;;;;5.88;2.97;;;13.90;99.90;;;;;;5036524;28;20052;-78
2021/10/21 03:22:42;;;;;;;6.15;2.38;;;13.90;99.90;;;;;;5036214;28;20500;-78
2021/10/21 03:25:11;;;;;;;5.97;2.55;;;13.90;99.90;;;;;;5034708;28;20122;-78
2021/10/21 03:27:39;;;;;;;4.90;2.22;;;14.00;99.90;;;;;;5029910;28;20425;-78
2021/10/21 03:30:08;;;;;;;5.32;2.13;;;14.00;99.90;;;;;;5030729;28;20056;-78
2021/10/21 03:32:35;;;;;;;5.40;2.00;;;13.90;99.90;;;;;;5029856;28;20075;-77
2021/10/21 03:35:03;;;;;;;4.90;2.15;;;14.00;99.90;;;;;;5028410;28;20110;-76
2021/10/21 03:37:30;;;;;;;5.43;2.20;;;14.00;99.90;;;;;;5028452;28;20057;-76
2021/10/21 03:39:58;;;;;;;4.53;2.10;;;14.00;99.90;;;;;;5030836;28;20053;-77
2021/10/21 03:42:25;;;;;;;5.70;2.33;;;14.00;99.90;;;;;;5030589;28;20091;-77
2021/10/21 03:44:54;;;;;;;6.13;2.35;;;14.00;99.90;;;;;;5030638;28;20755;-76
2021/10/21 03:47:21;;;;;;;5.22;2.10;;;14.00;99.90;;;;;;5029021;28;20053;-76
2021/10/21 03:49:50;;;;;;;5.10;2.50;;;14.00;99.90;;;;;;5031237;28;20053;-78
2021/10/21 03:52:18;;;;;;;6.57;3.10;;;14.00;99.90;;;;;;5028909;28;20052;-76
2021/10/21 03:54:45;;;;;;;6.97;2.50;;;14.00;99.90;;;;;;5032991;28;20549;-75
2021/10/21 03:57:14;;;;;;;5.55;2.70;;;14.10;99.90;;;;;;5032773;28;20073;-77
2021/10/21 03:59:41;;;;;;;5.30;2.60;;;14.10;99.90;;;;;;5034295;28;20056;-77
2021/10/21 04:02:09;;;;;;;6.53;3.30;;;14.10;99.90;;;;;;5034971;28;20056;-77
2021/10/21 04:04:36;;;;;;;5.18;2.95;;;14.20;99.90;;;;;;5037416;28;20122;-76
2021/10/21 04:07:04;;;;;;;7.50;3.58;;;14.20;99.90;;;;;;5035601;28;20555;-76
2021/10/21 04:09:31;;;;;;;6.75;3.33;;;14.20;99.90;;;;;;5033505;28;20986;-77
2021/10/21 04:11:58;;;;;;;7.53;3.35;;;14.30;99.90;;;;;;5034262;28;20130;-76
2021/10/21 04:14:26;;;;;;;5.10;2.67;;;14.30;99.90;;;;;;5035413;28;20155;-76
2021/10/21 04:16:53;;;;;;;4.88;2.97;;;14.40;99.90;;;;;;5037392;28;20439;-75
2021/10/21 04:19:20;;;;;;;7.35;3.17;;;14.40;99.90;;;;;;5034586;28;20084;-77
2021/10/21 04:21:47;;;;;;;6.78;3.35;;;14.40;99.90;;;;;;5034116;28;20041;-75
2021/10/21 04:24:14;;;;;;;6.63;3.70;;;14.50;99.90;;;;;;5033308;28;20049;-75
2021/10/21 04:26:41;;;;;;;6.03;2.95;;;14.50;99.90;;;;;;5032406;28;20490;-77
2021/10/21 04:29:08;;;;;;;6.88;3.42;;;14.50;99.90;;;;;;5033387;28;20049;-77
2021/10/21 04:31:37;;;;;;;6.55;2.97;;;14.50;99.90;;;;;;5035347;28;20356;-76
2021/10/21 04:34:04;;;;;;;6.75;3.30;;;14.50;99.90;;;;;;5037029;28;20102;-76
2021/10/21 04:36:31;;;;;;;6.88;3.42;;;14.50;99.90;;;;;;5037235;28;20045;-76
2021/10/21 04:38:58;;;;;;;7.53;3.10;;;14.50;99.90;;;;;;5036853;28;20137;-76
2021/10/21 04:41:25;;;;;;;9.10;3.20;;;14.60;99.90;;;;;;5036596;28;20053;-76
2021/10/21 04:43:52;;;;;;;5.18;2.75;;;14.60;99.90;;;;;;5036228;28;20095;-76
2021/10/21 04:46:19;;;;;;;5.50;2.67;;;14.70;99.90;;;;;;5036681;28;20107;-77
2021/10/21 04:48:47;;;;;;;3.92;1.90;;;14.80;99.90;;;;;;5037454;28;20118;-76
2021/10/21 04:51:14;;;;;;;4.18;2.05;;;14.80;99.90;;;;;;5036158;28;20091;-76
2021/10/21 04:53:42;;;;;;;7.65;2.42;;;14.80;99.90;;;;;;5036157;28;20052;-75
2021/10/21 04:56:10;;;;;;;4.03;1.85;;;14.70;99.90;;;;;;5033920;28;20383;-76
2021/10/21 04:58:37;;;;;;;2.78;1.33;;;14.80;99.90;;;;;;5036291;28;20117;-76
2021/10/21 05:01:04;;;;;;;3.38;1.60;;;14.80;99.90;;;;;;5036917;28;20049;-76
2021/10/21 05:03:32;;;;;;;4.50;2.33;;;14.80;99.90;;;;;;5034824;28;20057;-76
2021/10/21 05:06:00;;;;;;;5.00;1.77;;;14.70;99.90;;;;;;5034451;28;20057;-74
2021/10/21 05:08:27;;;;;;;6.57;1.58;;;14.70;99.90;;;;;;5034300;28;20076;-74
2021/10/21 05:10:54;;;;;;;3.83;1.77;;;14.60;99.90;;;;;;5034217;28;20049;-74
2021/10/21 05:13:21;;;;;;;6.15;1.30;;;14.50;99.90;;;;;;5035013;28;20053;-78
2021/10/21 05:15:48;;;;;;;3.90;1.13;;;14.50;99.90;;;;;;5036211;28;20057;-75
2021/10/21 05:18:16;;;;;;;2.63;1.10;;;14.50;99.90;;;;;;5036394;28;20179;-74
2021/10/21 05:20:44;;;;;;;2.05;1.10;;;14.30;99.90;;;;;;5036942;28;20132;-75
2021/10/21 05:23:12;;;;;;;3.80;1.00;;;14.10;99.90;;;;;;5036567;28;20045;-76
2021/10/21 05:25:39;;;;;;;2.90;0.90;;;14.00;99.90;;;;;;5035317;28;20082;-74
2021/10/21 05:28:06;;;;;;;3.40;0.90;;;13.90;99.90;;;;;;5035112;28;20076;-74
2021/10/21 05:30:33;;;;;;;2.47;0.80;;;13.70;99.90;;;;;;5033698;28;20052;-74
2021/10/21 05:33:01;;;;;;;2.10;0.95;;;13.60;99.90;;;;;;5035161;28;20053;-73
2021/10/21 05:35:28;;;;;;;4.82;1.20;;;13.50;99.90;;;;;;5036426;28;20145;-73
2021/10/21 05:37:55;;;;;;;1.70;0.90;;;13.40;99.90;;;;;;5036041;28;20400;-73
2021/10/21 05:40:24;;;;;;;3.97;1.00;;;13.40;99.90;;;;;;5034593;28;20053;-74
2021/10/21 05:42:51;;;;;;;4.63;0.73;;;13.30;99.90;;;;;;5037215;28;20064;-73
2021/10/21 05:45:18;;;;;;;6.72;1.00;;;13.20;99.90;;;;;;5036867;28;20480;-73
2021/10/21 05:47:46;;;;;;;7.53;0.80;;;13.10;99.90;;;;;;5036831;28;20049;-73
2021/10/21 05:50:14;;;;;;;8.57;1.17;;;13.00;99.90;;;;;;5035273;28;20053;-72
2021/10/21 05:52:41;;;;;;;3.72;0.80;;;12.90;99.90;;;;;;5034314;28;20049;-73
2021/10/21 05:55:09;;;;;;;10.55;1.08;;;12.80;99.90;;;;;;5034725;28;20048;-74
2021/10/21 05:57:38;;;;;;;3.42;0.88;;;12.80;99.90;;;;;;5033813;28;20429;-73
2021/10/21 06:00:08;;;;;;;3.30;0.90;;;12.80;99.90;;;;;;5035121;28;20052;-73
2021/10/21 06:02:35;;;;;;;6.78;1.25;;;12.80;99.90;;;;;;5034767;28;21019;-75
2021/10/21 06:05:03;;;;;;;6.68;1.40;;;12.80;99.90;;;;;;5034568;28;20475;-74
2021/10/21 06:07:30;;;;;;;15.65;0.82;;;12.80;99.90;;;;;;5036038;28;20049;-74
2021/10/21 06:09:58;;;;;;;5.20;1.13;;;12.40;99.90;;;;;;5036312;28;20084;-74
2021/10/21 06:12:25;;;;;;;3.55;1.05;;;12.40;99.90;;;;;;5036450;28;20056;-74
2021/10/21 06:14:54;;;;;;;8.15;1.05;;;12.50;99.90;;;;;;5035650;28;20653;-72
2021/10/21 06:17:23;;;;;;;3.88;0.73;;;12.70;99.90;;;;;;5035740;28;20155;-72
2021/10/21 06:19:50;;;;;;;5.25;0.73;;;12.60;99.90;;;;;;5035803;28;20049;-72
2021/10/21 06:22:18;;;;;;;12.63;1.48;;;12.40;99.90;;;;;;5035257;28;20103;-72
2021/10/21 06:24:46;;;;;;;7.90;1.27;;;12.60;99.90;;;;;;5035436;28;20074;-72
2021/10/21 06:27:13;;;;;;;10.10;1.63;;;12.20;99.90;;;;;;5034748;28;20056;-72
2021/10/21 06:29:40;;;;;;;8.68;1.10;;;12.50;99.90;;;;;;5035970;28;20057;-72
2021/10/21 06:32:09;;;;;;;4.32;0.90;;;12.60;99.90;;;;;;5035777;28;20049;-72
2021/10/21 06:34:36;;;;;;;9.50;1.83;;;12.50;99.90;;;;;;5034779;28;20110;-73
2021/10/21 06:37:06;;;;;;;6.45;0.88;;;12.50;99.90;;;;;;5034785;28;20367;-73
2021/10/21 06:39:33;;;;;;;7.30;1.20;;;12.50;99.90;;;;;;5035819;28;20053;-73
2021/10/21 06:42:00;;;;;;;7.43;1.15;;;12.50;99.90;;;;;;5035168;28;20092;-73
2021/10/21 06:44:27;;;;;;;7.95;1.20;;;12.40;99.90;;;;;;5034848;28;20129;-77
2021/10/21 06:46:54;;;;;;;12.18;1.30;;;12.30;99.90;;;;;;5034715;28;20057;-76
2021/10/21 06:49:23;;;;;;;8.20;1.80;;;12.50;99.90;;;;;;5036433;28;20096;-74
2021/10/21 06:51:50;;;;;;;10.77;1.85;;;12.40;99.90;;;;;;5033958;28;20064;-74
2021/10/21 06:54:17;;;;;;;6.93;1.30;;;12.60;99.90;;;;;;5034617;28;20060;-77
2021/10/21 06:56:44;;;;;;;7.03;1.20;;;12.40;99.90;;;;;;5034547;28;20092;-72
2021/10/21 06:59:11;;;;;;;9.75;1.30;;;12.60;99.90;;;;;;5035931;28;20045;-73
2021/10/21 07:01:40;;;;;;;7.20;1.30;;;12.50;99.90;;;;;;5034136;28;20107;-73
2021/10/21 07:04:07;;;;;;;7.43;1.30;;;12.80;99.90;;;;;;5034311;28;20057;-74
2021/10/21 07:06:36;;;;;;;7.60;1.40;;;12.50;99.90;;;;;;5034370;28;20056;-73
2021/10/21 07:09:03;;;;;;;7.18;1.63;;;12.20;99.90;;;;;;5035735;28;20060;-74
2021/10/21 07:11:31;;;;;;;5.38;0.57;;;12.30;99.90;;;;;;5034091;28;20092;-74
2021/10/21 07:13:58;;;;;;;6.28;1.15;;;12.50;99.90;;;;;;5033817;28;20063;-74
2021/10/21 07:16:25;;;;;;;7.95;1.67;;;12.60;99.90;;;;;;5034018;28;20040;-74
2021/10/21 07:18:52;;;;;;;8.10;1.48;;;12.80;99.90;;;;;;5034084;28;20083;-74
2021/10/21 07:21:19;;;;;;;7.75;1.10;;;13.50;99.90;;;;;;5034536;28;20071;-74
2021/10/21 07:23:47;;;;;;;7.07;1.77;;;13.70;99.90;;;;;;5034348;28;20134;-74
2021/10/21 07:26:16;;;;;;;6.30;1.40;;;13.70;99.90;;;;;;5033369;28;20770;-74
2021/10/21 07:28:43;;;;;;;6.18;1.20;;;13.80;99.90;;;;;;5035500;28;20048;-73
2021/10/21 07:31:14;;;;;;;8.80;1.20;;;13.90;99.90;;;;;;5036052;28;20075;-73
2021/10/21 07:33:41;;;;;;;8.98;1.60;;;13.80;99.90;;;;;;5035418;28;20055;-72
2021/10/21 07:36:08;;;;;;;8.68;1.70;;;13.80;99.90;;;;;;5034599;28;20053;-73
2021/10/21 07:38:36;;;;;;;8.02;1.13;;;13.80;99.90;;;;;;5035421;28;20243;-74
2021/10/21 07:41:04;;;;;;;8.27;1.23;;;13.70;99.90;;;;;;5035035;28;20144;-72
2021/10/21 07:43:32;;;;;;;5.85;1.08;;;13.80;99.90;;;;;;5034906;28;20107;-74
2021/10/21 07:45:59;;;;;;;4.47;1.38;;;13.80;99.90;;;;;;5034546;28;20468;-73
2021/10/21 07:48:26;;;;;;;10.90;1.45;;;13.80;99.90;;;;;;5034085;28;20045;-75
2021/10/21 07:50:53;;;;;;;6.65;0.95;;;13.80;99.90;;;;;;5034042;28;20463;-72
2021/10/21 07:53:20;;;;;;;10.07;1.70;;;13.80;99.90;;;;;;5034880;28;20103;-72
2021/10/21 07:55:47;;;;;;;5.68;1.42;;;13.90;99.90;;;;;;5033583;28;20049;-74
2021/10/21 07:58:17;;;;;;;10.95;1.00;;;13.90;99.90;;;;;;5034200;28;20056;-72
2021/10/21 08:00:44;;;;;;;3.97;0.88;;;13.80;99.90;;;;;;5034671;28;20143;-75
2021/10/21 08:03:11;;;;;;;11.98;1.08;;;13.80;99.90;;;;;;5034131;28;20527;-72
2021/10/21 08:05:38;;;;;;;10.38;1.92;;;13.90;99.90;;;;;;5033930;28;20057;-73
2021/10/21 08:08:06;;;;;;;8.77;1.30;;;13.80;99.90;;;;;;5038391;28;20072;-72
2021/10/21 08:10:33;;;;;;;10.35;1.00;;;13.80;99.90;;;;;;5037505;28;20517;-72
2021/10/21 08:13:00;;;;;;;10.23;1.15;;;13.80;99.90;;;;;;5038446;28;20053;-74
2021/10/21 08:15:29;;;;;;;5.50;1.70;;;13.70;99.90;;;;;;5037395;28;20390;-74
2021/10/21 08:17:57;;;;;;;3.58;0.63;;;13.60;99.90;;;;;;5038329;28;20080;-73
2021/10/21 08:20:27;;;;;;;7.90;1.25;;;13.60;99.90;;;;;;5036912;28;20122;-75
2021/10/21 08:22:54;;;;;;;3.53;0.43;;;13.50;99.90;;;;;;5038260;28;20106;-73
2021/10/21 08:25:25;;;;;;;3.38;0.70;;;13.40;99.90;;;;;;5038028;28;20060;-72
2021/10/21 08:27:53;;;;;;;6.63;0.80;;;13.20;99.90;;;;;;5038488;28;20083;-74
2021/10/21 08:30:23;;;;;;;4.90;0.90;;;13.10;99.90;;;;;;5037864;28;20845;-73
2021/10/21 08:32:54;;;;;;;4.75;1.50;;;12.70;99.90;;;;;;5037314;28;20464;-71
2021/10/21 08:35:22;;;;;;;1.55;0.47;;;12.60;99.90;;;;;;5037299;28;20079;-73
2021/10/21 08:37:49;;;;;;;4.40;0.38;;;12.50;99.90;;;;;;5038041;28;21171;-73
2021/10/21 08:40:17;;;;;;;4.30;0.60;;;12.50;99.90;;;;;;5038443;28;20072;-73
2021/10/21 08:42:44;;;;;;;6.50;0.43;;;12.50;99.90;;;;;;5037985;28;20138;-73
2021/10/21 08:45:11;;;;;;;7.43;0.60;;;12.70;99.90;;;;;;5037051;28;20100;-71
2021/10/21 08:47:41;;;;;;;2.65;0.50;;;13.00;99.90;;;;;;5033219;28;20061;-72
2021/10/21 08:50:11;;;;;;;4.38;0.80;;;12.90;99.90;;;;;;5032457;28;20049;-71
2021/10/21 08:52:38;;;;;;;4.25;1.33;;;12.90;99.90;;;;;;5032083;28;20088;-72
2021/10/21 08:55:06;;;;;;;2.65;0.88;;;12.90;99.90;;;;;;5032716;28;20513;-71
2021/10/21 08:57:33;;;;;;;9.32;0.95;;;12.90;99.90;;;;;;5032068;28;20519;-71
2021/10/21 09:00:00;;;;;;;3.08;0.50;;;13.20;99.90;;;;;;5033761;28;20048;-73
2021/10/21 09:02:36;;;;;;;8.35;0.60;;;13.10;99.90;;;;;;5032268;28;20048;-73
2021/10/21 09:05:13;;;;;;;6.43;1.13;;;13.10;99.90;;;;;;5032865;28;20246;-73
2021/10/21 09:07:57;;;;;;;;;;;13.00;99.90;;;;;;5033106;28;20533;-76
2021/10/21 09:10:25;;;;;;;4.57;0.80;;;15.70;99.90;;;;;;5031595;28;19924;-72
2021/10/21 09:12:53;;;;;;;11.27;0.77;;;15.20;99.90;;;;;;5031103;28;20091;-72
2021/10/21 09:15:23;;;;;;;2.70;0.20;;;15.60;99.90;;;;;;5031918;28;20057;-72
2021/10/21 09:17:51;;;;;;;5.95;0.60;;;14.30;99.90;;;;;;5031129;28;20327;-71
2021/10/21 09:20:37;;;;;;;2.47;0.25;;;15.90;99.90;;;;;;5031784;28;20080;-71
2021/10/21 09:23:09;;;;;;;0.82;0.30;;;15.80;99.90;;;;;;5031601;28;20061;-71
2021/10/21 09:25:38;;;;;;;3.55;0.40;;;13.80;99.90;;;;;;5031489;28;20510;-71
2021/10/21 09:28:18;;;;;;;5.65;0.30;;;14.90;99.90;;;;;;5031004;28;20053;-71
2021/10/21 09:30:56;;;;;;;5.18;0.50;;;15.10;99.90;;;;;;5030388;28;20076;-71
2021/10/21 09:33:23;;;;;;;3.20;0.30;;;14.20;99.90;;;;;;5031572;28;20453;-71
2021/10/21 09:35:56;;;;;;;2.30;0.50;;;13.80;99.90;;;;;;5031935;28;20404;-72
2021/10/21 09:38:29;;;;;;;1.45;0.40;;;14.50;99.90;;;;;;5030146;28;20111;-71
2021/10/21 09:41:00;;;;;;;1.42;0.30;;;14.00;99.90;;;;;;5032181;28;20548;-71
2021/10/21 09:43:35;;;;;;;5.30;0.90;;;13.50;99.90;;;;;;5032400;28;20081;-72
2021/10/21 09:46:03;;;;;;;2.60;0.10;;;13.30;99.90;;;;;;5031470;28;20060;-71
2021/10/21 09:48:30;;;;;;;0.43;0.10;;;13.20;99.90;;;;;;5032586;28;20098;-72
2021/10/21 09:50:57;;;;;;;1.83;0.30;;;13.70;99.90;;;;;;5031650;28;20452;-72
2021/10/21 09:53:29;;;;;;;1.75;0.25;;;13.40;99.90;;;;;;5030789;28;20262;-71
2021/10/21 09:56:08;;;;;;;5.88;0.35;;;13.50;99.90;;;;;;5029872;28;20421;-72
2021/10/21 09:58:37;;;;;;;1.45;0.20;;;13.40;99.90;;;;;;5030264;28;20442;-71
2021/10/21 10:01:06;;;;;;;2.95;0.30;;;13.10;99.90;;;;;;5030757;28;20049;-73
2021/10/21 10:03:34;;;;;;;1.85;0.20;;;12.90;99.90;;;;;;5030654;28;20344;-72
2021/10/21 10:06:01;;;;;;;0.80;0.20;;;12.90;99.90;;;;;;5030227;28;20860;-73
2021/10/21 10:08:30;;;;;;;0.38;0.15;;;12.80;99.90;;;;;;5030761;28;20505;-72
2021/10/21 10:11:01;;;;;;;1.63;0.20;;;12.80;99.90;;;;;;5031479;28;20048;-73
2021/10/21 10:13:30;;;;;;;0.73;0.20;;;12.80;99.90;;;;;;5030559;28;20056;-73
2021/10/21 10:15:57;;;;;;;2.88;0.25;;;13.20;99.90;;;;;;5030678;28;20410;-72
2021/10/21 10:18:26;;;;;;;6.63;0.47;;;13.30;99.90;;;;;;5030598;28;20579;-71
2021/10/21 10:21:04;;;;;;;0.30;0.20;;;13.10;99.90;;;;;;5030918;28;20418;-74
2021/10/21 10:23:33;;;;;;;0.47;0.20;;;13.00;99.90;;;;;;5030561;28;20052;-72
2021/10/21 10:26:02;;;;;;;4.28;0.65;;;13.00;99.90;;;;;;5029889;28;20044;-72
2021/10/21 10:28:51;;;;;;;0.10;0.10;;;12.90;99.90;;;;;;5028352;28;20056;-72
2021/10/21 10:31:39;;;;;;;1.40;0.28;;;13.20;99.90;;;;;;5030576;28;20124;-72
2021/10/21 10:34:06;;;;;;;1.52;0.40;;;13.10;99.90;;;;;;5030295;28;20057;-72
2021/10/21 10:36:33;;;;;;;2.63;0.30;;;13.00;99.90;;;;;;5028993;28;20057;-71
2021/10/21 10:39:02;;;;;;;0.73;0.22;;;13.00;99.90;;;;;;5031422;28;20061;-71
2021/10/21 10:41:55;;;;;;;1.00;0.30;;;13.10;99.90;;;;;;5031660;28;20118;-71
2021/10/21 10:45:00;;;;;;;2.80;0.52;;;13.60;99.90;;;;;;5030674;28;20056;-72
2021/10/21 10:47:47;;;;;;;2.90;0.32;;;13.20;99.90;;;;;;5030135;28;20051;-72
2021/10/21 10:50:49;;;;;;;0.73;0.20;;;13.20;99.90;;;;;;5030633;28;20084;-72
2021/10/21 10:53:16;;;;;;;2.25;0.40;;;13.10;99.90;;;;;;5030955;28;20180;-73
2021/10/21 10:55:46;;;;;;;1.92;0.35;;;12.80;99.90;;;;;;5029314;28;20666;-73
2021/10/21 10:58:16;;;;;;;2.80;0.40;;;13.00;99.90;;;;;;5029647;28;20199;-72
2021/10/21 11:00:49;;;;;;;1.80;0.50;;;13.30;99.90;;;;;;5030120;28;21081;-73
2021/10/21 11:03:30;;;;;;;1.60;0.40;;;13.10;99.90;;;;;;5029742;28;20056;-73
2021/10/21 11:05:58;;;;;;;0.45;0.25;;;13.00;99.90;;;;;;5030367;28;20052;-72
2021/10/21 11:09:02;;;;;;;4.00;1.48;;;12.80;99.90;;;;;;5030914;28;20060;-75
2021/10/21 11:11:43;;;;;;;1.40;0.50;;;13.00;99.90;;;;;;5030113;28;20064;-73
2021/10/21 11:14:13;;;;;;;1.98;0.63;;;13.00;99.90;;;;;;5029354;28;20049;-71
2021/10/21 11:16:45;;;;;;;4.93;0.95;;;13.40;99.90;;;;;;5028489;28;20049;-72
2021/10/21 11:19:14;;;;;;;4.13;0.45;;;13.60;99.90;;;;;;5029872;28;20057;-72
2021/10/21 11:21:53;;;;;;;3.75;0.80;;;13.50;99.90;;;;;;5028846;28;20060;-71
2021/10/21 11:25:03;;;;;;;2.05;0.55;;;14.10;99.90;;;;;;5027540;28;20049;-71
2021/10/21 11:27:33;;;;;;;2.17;0.75;;;13.90;99.90;;;;;;5000468;28;20056;-72
2021/10/21 11:30:10;;;;;;;4.03;0.98;;;13.40;99.90;;;;;;5027384;28;20049;-71
2021/10/21 11:32:41;;;;;;;2.55;0.68;;;13.90;99.90;;;;;;5027536;28;20436;-73
2021/10/21 11:35:11;;;;;;;3.78;0.90;;;13.30;99.90;;;;;;5029112;28;20045;-71
2021/10/21 11:37:43;;;;;;;3.58;0.70;;;13.20;99.90;;;;;;5028779;28;20056;-72
2021/10/21 11:40:16;;;;;;;3.70;0.57;;;13.60;99.90;;;;;;5029031;28;20081;-72
2021/10/21 11:42:49;;;;;;;3.72;0.75;;;14.30;99.90;;;;;;5027459;28;20061;-72
2021/10/21 11:45:18;;;;;;;1.98;0.63;;;15.20;99.90;;;;;;5026083;28;20099;-72
2021/10/21 11:47:47;;;;;;;4.30;1.00;;;14.30;99.90;;;;;;5027251;28;20465;-72
2021/10/21 11:50:14;;;;;;;4.57;0.70;;;16.20;99.90;;;;;;5027374;28;20053;-71
2021/10/21 11:52:43;;;;;;;1.95;0.52;;;14.90;99.90;;;;;;5028596;28;20053;-71
2021/10/21 11:55:20;;;;;;;4.38;0.70;;;13.80;99.90;;;;;;5028876;28;20583;-71
2021/10/21 11:57:48;;;;;;;1.63;0.47;;;14.20;99.90;;;;;;5028657;28;20483;-71
2021/10/21 12:00:22;;;;;;;1.63;0.60;;;14.40;99.90;;;;;;5027400;28;20152;-72
2021/10/21 12:02:53;;;;;;;2.75;0.90;;;15.30;99.90;;;;;;5028120;28;20140;-72
2021/10/21 12:05:28;;;;;;;4.18;1.50;;;14.30;99.90;;;;;;5027656;28;20139;-72
2021/10/21 12:07:56;;;;;;;4.35;0.60;;;15.50;99.90;;;;;;5028619;28;20056;-72
2021/10/21 12:10:43;;;;;;;5.60;0.88;;;14.70;99.90;;;;;;5027444;28;20509;-72
2021/10/21 12:13:22;;;;;;;7.05;1.23;;;14.50;99.90;;;;;;5027065;28;20053;-71
2021/10/21 12:15:52;;;;;;;3.75;0.82;;;15.50;99.90;;;;;;5026978;28;20118;-71
2021/10/21 12:18:20;;;;;;;2.85;0.90;;;14.60;99.90;;;;;;5025309;28;20105;-71
2021/10/21 12:20:50;;;;;;;6.85;0.70;;;15.10;99.90;;;;;;5025721;28;20075;-71
2021/10/21 12:23:22;;;;;;;2.28;0.57;;;14.70;99.90;;;;;;5028023;28;20127;-71
2021/10/21 12:25:50;;;;;;;4.50;0.82;;;14.40;99.90;;;;;;5024905;28;21032;-71
2021/10/21 12:28:18;;;;;;;3.95;0.98;;;14.90;99.90;;;;;;5028224;28;20057;-71
2021/10/21 12:30:46;;;;;;;4.57;0.57;;;14.00;99.90;;;;;;5027774;28;20103;-71
2021/10/21 12:33:16;;;;;;;3.70;0.73;;;14.10;99.90;;;;;;5027219;28;20107;-70
2021/10/21 12:36:04;;;;;;;3.35;0.70;;;13.80;99.90;;;;;;5027681;28;20052;-72
2021/10/21 12:38:32;;;;;;;6.90;1.20;;;13.70;99.90;;;;;;5028200;28;20049;-71
2021/10/21 12:41:01;;;;;;;8.13;0.90;;;13.70;99.90;;;;;;5027058;28;20151;-71
2021/10/21 12:43:29;;;;;;;3.17;0.75;;;13.80;99.90;;;;;;5026027;28;20489;-71
2021/10/21 12:46:00;;;;;;;4.82;0.80;;;13.60;99.90;;;;;;5028586;28;20061;-71
2021/10/21 12:48:30;;;;;;;3.22;0.80;;;13.50;99.90;;;;;;5030512;28;20061;-71
2021/10/21 12:51:09;;;;;;;5.13;1.50;;;13.40;99.90;;;;;;5027745;28;20052;-72
2021/10/21 12:53:37;;;;;;;7.90;0.90;;;13.30;99.90;;;;;;5030568;28;20059;-71
2021/10/21 12:56:15;;;;;;;2.92;0.75;;;13.20;99.90;;;;;;5030500;28;20083;-70